Thursday, July 19, 2018, 1:17 PM EDT
Back to Local

KUKT, Quakertown, Quakertown Airport

Location: Quakertown, PA, United States Lat: 40.435
Local Time: 1:17 PM EDT (17:17 GMT) Lon: -75.382
Time Zone: US/Eastern Elev: 524 ft

Show me the last for .
Show Decoded

2018-07-19 12:55 METAR KUKT 191655Z AUTO 11004KT 10SM CLR 26/11 A3012 RMK A01 =
2018-07-19 12:35 METAR KUKT 191635Z AUTO VRB04KT 10SM CLR 26/11 A3012 RMK A01 =
2018-07-19 12:15 METAR KUKT 191615Z AUTO VRB05KT 10SM CLR 25/11 A3013 RMK A01 =
2018-07-19 11:55 METAR KUKT 191555Z AUTO 00000KT 10SM CLR 25/10 A3012 RMK A01 =
2018-07-19 11:35 METAR KUKT 191535Z AUTO 00000KT 10SM CLR 25/11 A3013 RMK A01 =
2018-07-19 11:15 METAR KUKT 191515Z AUTO 04003KT 10SM CLR 24/12 A3013 RMK A01 =
2018-07-19 10:55 METAR KUKT 191455Z AUTO VRB04KT 10SM CLR 23/12 A3013 RMK A01 =
2018-07-19 10:35 METAR KUKT 191435Z AUTO 05005KT 10SM CLR 23/13 A3013 RMK A01 =
2018-07-19 10:15 METAR KUKT 191415Z AUTO VRB04KT 10SM CLR 22/13 A3013 RMK A01 =
2018-07-19 09:55 METAR KUKT 191355Z AUTO VRB04KT 10SM CLR 22/12 A3013 RMK A01 =
2018-07-19 09:35 METAR KUKT 191335Z AUTO VRB03KT 10SM CLR 21/12 A3013 RMK A01 =
2018-07-19 09:15 METAR KUKT 191315Z AUTO 35005KT 10SM CLR 20/12 A3013 RMK A01 =
2018-07-19 08:55 METAR KUKT 191255Z AUTO 36005KT 10SM CLR 20/11 A3012 RMK A01 =
2018-07-19 08:35 METAR KUKT 191235Z AUTO 34004KT 10SM CLR 19/11 A3012 RMK A01 =
2018-07-19 08:15 METAR KUKT 191215Z AUTO 34005KT 10SM CLR 18/11 A3011 RMK A01 =
2018-07-19 07:55 METAR KUKT 191155Z AUTO 36004KT 10SM CLR 18/10 A3010 RMK A01 =
2018-07-19 07:35 METAR KUKT 191135Z AUTO 00000KT 10SM CLR 17/11 A3010 RMK A01 =
2018-07-19 07:15 METAR KUKT 191115Z AUTO 00000KT 10SM CLR 15/11 A3010 RMK A01 =
2018-07-19 06:55 METAR KUKT 191055Z AUTO 00000KT 10SM CLR 13/11 A3010 RMK A01 =
2018-07-19 06:35 METAR KUKT 191035Z AUTO 00000KT 10SM CLR 12/11 A3009 RMK A01 =
2018-07-19 06:15 METAR KUKT 191015Z AUTO 00000KT 10SM CLR 11/11 A3009 RMK A01 =
2018-07-19 05:55 METAR KUKT 190955Z AUTO 00000KT 10SM CLR 11/11 A3009 RMK A01 =
2018-07-19 05:35 METAR KUKT 190935Z AUTO 00000KT 10SM CLR 11/11 A3008 RMK A01 =
2018-07-19 05:15 METAR KUKT 190915Z AUTO 00000KT 10SM CLR 12/11 A3008 RMK A01 =
2018-07-19 04:55 METAR KUKT 190855Z AUTO 31003KT 10SM CLR 12/11 A3007 RMK A01 =
2018-07-19 04:35 METAR KUKT 190835Z AUTO 00000KT 10SM CLR 12/12 A3007 RMK A01 =
2018-07-19 04:15 METAR KUKT 190815Z AUTO 00000KT 10SM CLR 12/12 A3006 RMK A01 =
2018-07-19 03:55 METAR KUKT 190755Z AUTO 00000KT 10SM CLR 13/12 A3007 RMK A01 =
2018-07-19 03:35 METAR KUKT 190735Z AUTO 00000KT 10SM CLR 13/12 A3006 RMK A01 =
2018-07-19 03:15 METAR KUKT 190715Z AUTO 00000KT 10SM CLR 13/12 A3006 RMK A01 =
2018-07-19 02:55 METAR KUKT 190655Z AUTO 10SM CLR 14/12 A3006 RMK A01 =
2018-07-19 02:35 METAR KUKT 190635Z AUTO 00000KT 10SM CLR 14/12 A3006 RMK A01 =
2018-07-19 02:15 METAR KUKT 190615Z AUTO 00000KT 10SM CLR 15/12 A3005 RMK A01 =
2018-07-19 01:55 METAR KUKT 190555Z AUTO 00000KT 10SM CLR 16/12 A3006 RMK A01 =
2018-07-19 01:35 METAR KUKT 190535Z AUTO 00000KT 10SM CLR 17/13 A3006 RMK A01 =
2018-07-19 01:15 METAR KUKT 190515Z AUTO 00000KT 10SM CLR 18/12 A3005 RMK A01 =
2018-07-19 00:55 METAR KUKT 190455Z AUTO 35004KT 10SM CLR 19/11 A3004 RMK A01 =
2018-07-19 00:35 METAR KUKT 190435Z AUTO 35004KT 10SM CLR 20/11 A3003 RMK A01 =
2018-07-19 00:15 METAR KUKT 190415Z AUTO 36005KT 10SM CLR 20/11 A3003 RMK A01 =
2018-07-18 23:55 METAR KUKT 190355Z AUTO 36005KT 10SM CLR 20/11 A3002 RMK A01 =
2018-07-18 23:35 METAR KUKT 190335Z AUTO 01004KT 10SM CLR 20/12 A3002 RMK A01 =
2018-07-18 23:15 METAR KUKT 190315Z AUTO 01004KT 10SM CLR 20/12 A3002 RMK A01 =
2018-07-18 22:55 METAR KUKT 190255Z AUTO 36005KT 10SM CLR 21/11 A3001 RMK A01 =
2018-07-18 22:35 METAR KUKT 190235Z AUTO 36006KT 10SM CLR 21/11 A3001 RMK A01 =
2018-07-18 22:15 METAR KUKT 190215Z AUTO 36004KT 10SM CLR 21/12 A3001 RMK A01 =
2018-07-18 21:55 METAR KUKT 190155Z AUTO 35004KT 10SM CLR 22/11 A3000 RMK A01 =
2018-07-18 21:35 METAR KUKT 190135Z AUTO 35004KT 10SM CLR 22/12 A3000 RMK A01 =
2018-07-18 21:15 METAR KUKT 190115Z AUTO 35003KT 10SM CLR 23/12 A2999 RMK A01 =
2018-07-18 20:55 METAR KUKT 190055Z AUTO 35004KT 10SM CLR 23/12 A2998 RMK A01 =
2018-07-18 20:35 METAR KUKT 190035Z AUTO 00000KT 10SM CLR 24/13 A2998 RMK A01 =
2018-07-18 20:15 METAR KUKT 190015Z AUTO 35003KT 10SM CLR 24/13 A2997 RMK A01 =
2018-07-18 19:55 METAR KUKT 182355Z AUTO 34003KT 10SM CLR 25/13 A2996 RMK A01 =
2018-07-18 19:35 METAR KUKT 182335Z AUTO 33006KT 10SM CLR 26/13 A2996 RMK A01 =
2018-07-18 19:15 METAR KUKT 182315Z AUTO VRB05KT 10SM CLR 26/13 A2995 RMK A01 =
2018-07-18 18:55 METAR KUKT 182255Z AUTO 34007KT 10SM CLR 27/13 A2995 RMK A01 =
2018-07-18 18:35 METAR KUKT 182235Z AUTO 35008G13KT 10SM CLR 27/12 A2994 RMK A01 =
2018-07-18 18:15 METAR KUKT 182215Z AUTO 34008KT 10SM CLR 27/12 A2994 RMK A01 =
2018-07-18 17:55 METAR KUKT 182155Z AUTO 33008KT 10SM CLR 28/12 A2994 RMK A01 =
2018-07-18 17:35 METAR KUKT 182135Z AUTO 34008KT 10SM CLR 28/13 A2994 RMK A01 =
2018-07-18 17:15 METAR KUKT 182115Z AUTO 34005KT 10SM CLR 28/13 A2994 RMK A01 =
2018-07-18 16:55 METAR KUKT 182055Z AUTO 33008KT 10SM CLR 29/13 A2994 RMK A01 =
2018-07-18 16:35 METAR KUKT 182035Z AUTO 32008KT 10SM FEW065 29/13 A2994 RMK A01 =
2018-07-18 16:15 METAR KUKT 182015Z AUTO VRB06KT 10SM FEW060 FEW080 29/14 A2994 RMK A01 =
2018-07-18 15:55 METAR KUKT 181955Z AUTO 32007KT 270V360 10SM CLR 29/14 A2994 RMK A01 =
2018-07-18 15:35 METAR KUKT 181935Z AUTO 32008G14KT 280V350 10SM FEW055 FEW070 FEW080 28/14 A2995
                 RMK A01 =
2018-07-18 15:15 METAR KUKT 181915Z AUTO 35008G14KT 10SM SCT055 BKN070 28/14 A2995 RMK A01 =
2018-07-18 14:55 METAR KUKT 181855Z AUTO 33010KT 10SM SCT060 SCT070 SCT085 29/15 A2995 RMK A01 =
2018-07-18 14:35 METAR KUKT 181835Z AUTO VRB06KT 10SM SCT060 SCT085 28/15 A2995 RMK A01 =
2018-07-18 14:15 METAR KUKT 181815Z AUTO 32005KT 10SM FEW060 FEW080 28/15 A2995 RMK A01 =
2018-07-18 13:55 METAR KUKT 181755Z AUTO 34008G14KT 10SM SCT060 SCT080 27/14 A2995 RMK A01 =
2018-07-18 13:35 METAR KUKT 181735Z AUTO 36008G13KT 330V030 10SM CLR 28/14 A2995 RMK A01 =

Support USWX by starting your Amazon purchase here.